createdAt,value
2023-01-13T00:01:14.760Z,75.66
2023-01-13T00:03:41.452Z,75.48
2023-01-13T00:06:08.493Z,75.85
2023-01-13T00:08:45.422Z,76.17
2023-01-13T00:11:11.920Z,75.71
2023-01-13T00:13:38.952Z,75.50
2023-01-13T00:16:06.387Z,75.21
2023-01-13T00:18:33.333Z,74.81
2023-01-13T00:21:01.664Z,75.25
2023-01-13T00:23:28.279Z,74.95
2023-01-13T00:25:58.209Z,75.14
2023-01-13T00:28:24.733Z,75.49
2023-01-13T00:30:51.300Z,75.56
2023-01-13T00:33:17.885Z,75.47
2023-01-13T00:35:44.385Z,75.66
2023-01-13T00:38:10.937Z,76.09
2023-01-13T00:40:37.377Z,76.14
2023-01-13T00:43:22.469Z,75.75
2023-01-13T00:45:51.535Z,75.62
2023-01-13T00:48:21.445Z,75.24
2023-01-13T00:50:53.944Z,75.21
2023-01-13T00:53:20.510Z,75.89
2023-01-13T00:55:46.980Z,75.58
2023-01-13T00:58:13.513Z,76.13
2023-01-13T01:00:40.102Z,75.04
2023-01-13T01:03:12.356Z,75.37
2023-01-13T01:05:39.532Z,74.97
2023-01-13T01:08:06.018Z,75.39
2023-01-13T01:10:32.630Z,75.16
2023-01-13T01:12:59.176Z,75.21
2023-01-13T01:15:25.718Z,74.67
2023-01-13T01:17:52.318Z,74.35
2023-01-13T01:20:18.843Z,74.50
2023-01-13T01:22:45.304Z,74.57
2023-01-13T01:25:11.849Z,74.88
2023-01-13T01:27:38.353Z,74.72
2023-01-13T01:30:05.082Z,74.14
2023-01-13T01:32:33.536Z,73.74
2023-01-13T01:35:00.128Z,73.43
2023-01-13T01:37:28.641Z,73.73
2023-01-13T01:39:55.140Z,73.73
2023-01-13T01:42:40.905Z,72.96
2023-01-13T01:45:23.541Z,73.41
2023-01-13T01:47:50.899Z,73.18
2023-01-13T01:50:17.423Z,73.47
2023-01-13T01:56:12.633Z,72.44
2023-01-13T01:58:45.658Z,72.72
2023-01-13T02:01:41.329Z,72.61
2023-01-13T02:04:21.199Z,72.59
2023-01-13T02:06:47.809Z,72.05
2023-01-13T02:09:14.389Z,72.83
2023-01-13T02:11:59.611Z,72.11
2023-01-13T02:14:26.962Z,72.05
2023-01-13T02:16:58.365Z,72.07
2023-01-13T02:19:29.422Z,71.79
2023-01-13T02:21:55.909Z,72.52
2023-01-13T02:24:47.126Z,71.77
2023-01-13T02:27:34.515Z,72.28
2023-01-13T02:30:23.283Z,72.47
2023-01-13T02:32:56.089Z,72.02
2023-01-13T02:35:41.452Z,71.87
2023-01-13T02:38:08.274Z,71.45
2023-01-13T02:40:36.366Z,72.16
2023-01-13T02:43:35.966Z,71.33
2023-01-13T02:46:04.054Z,71.86
2023-01-13T02:48:30.900Z,71.98
2023-01-13T02:50:59.839Z,71.78
2023-01-13T02:53:28.297Z,71.89
2023-01-13T02:55:54.805Z,71.11
2023-01-13T02:58:22.719Z,70.96
2023-01-13T03:00:49.276Z,71.20
2023-01-13T03:03:15.779Z,71.41
2023-01-13T03:05:42.498Z,71.13
2023-01-13T03:08:08.960Z,70.82
2023-01-13T03:10:50.125Z,71.45
2023-01-13T03:13:27.951Z,71.26
2023-01-13T03:16:00.960Z,71.78
2023-01-13T03:18:27.399Z,71.20
2023-01-13T03:20:56.417Z,71.37
2023-01-13T03:23:25.265Z,70.86
2023-01-13T03:26:24.294Z,71.14
2023-01-13T03:28:59.546Z,71.06
2023-01-13T03:31:27.811Z,71.45
2023-01-13T03:34:26.737Z,71.20
2023-01-13T03:36:53.431Z,71.77
2023-01-13T03:39:21.103Z,71.82
2023-01-13T03:41:53.430Z,71.39
2023-01-13T03:44:38.563Z,71.61
2023-01-13T03:47:11.351Z,72.04
2023-01-13T03:49:39.697Z,71.85
2023-01-13T03:52:07.329Z,71.10
2023-01-13T03:54:34.134Z,71.04
2023-01-13T03:57:02.639Z,71.40
2023-01-13T03:59:30.381Z,71.53
2023-01-13T04:01:57.014Z,71.52
2023-01-13T04:04:25.152Z,71.96
2023-01-13T04:06:51.734Z,71.37
2023-01-13T04:09:28.496Z,71.36
2023-01-13T04:12:02.191Z,71.57
2023-01-13T04:14:28.634Z,71.38
2023-01-13T04:16:55.382Z,71.37
2023-01-13T04:19:22.010Z,71.65
2023-01-13T04:21:48.493Z,71.27
2023-01-13T04:24:14.953Z,71.69
2023-01-13T04:26:41.463Z,71.62
2023-01-13T04:29:07.946Z,70.77
2023-01-13T04:31:34.485Z,70.88
2023-01-13T04:34:00.936Z,70.64
2023-01-13T04:36:30.443Z,70.13
2023-01-13T04:38:56.951Z,69.79
2023-01-13T04:41:23.388Z,70.21
2023-01-13T04:43:49.825Z,69.50
2023-01-13T04:46:16.361Z,69.23
2023-01-13T04:48:42.829Z,69.87
2023-01-13T04:51:09.313Z,69.76
2023-01-13T04:53:35.765Z,69.91
2023-01-13T04:56:02.286Z,69.27
2023-01-13T04:58:28.769Z,70.22
2023-01-13T05:00:55.554Z,69.66
2023-01-13T05:03:22.284Z,69.76
2023-01-13T05:05:50.921Z,69.97
2023-01-13T05:08:17.404Z,69.88
2023-01-13T05:10:43.888Z,69.67
2023-01-13T05:13:29.080Z,70.17
2023-01-13T05:16:14.252Z,70.30
2023-01-13T05:18:40.776Z,70.02
2023-01-13T05:21:27.181Z,69.44
2023-01-13T05:24:12.403Z,69.70
2023-01-13T05:26:38.863Z,69.80
2023-01-13T05:29:05.280Z,69.92
2023-01-13T05:31:31.824Z,69.30
2023-01-13T05:34:36.391Z,69.50
2023-01-13T05:37:03.347Z,69.27
2023-01-13T05:39:49.748Z,70.15
2023-01-13T05:42:35.025Z,69.79
2023-01-13T05:45:01.635Z,69.53
2023-01-13T05:47:28.129Z,69.34
2023-01-13T05:49:54.563Z,69.25
2023-01-13T05:52:20.987Z,69.46
2023-01-13T05:54:47.491Z,69.41
2023-01-13T05:57:13.967Z,69.37
2023-01-13T05:59:40.393Z,69.66
2023-01-13T06:02:06.982Z,69.69
2023-01-13T06:04:33.599Z,69.63
2023-01-13T06:07:00.191Z,69.69
2023-01-13T06:09:26.610Z,69.98
2023-01-13T06:11:53.095Z,70.15
2023-01-13T06:14:19.563Z,70.23
2023-01-13T06:16:45.993Z,69.90
2023-01-13T06:19:13.488Z,70.46
2023-01-13T06:21:40.056Z,70.36
2023-01-13T06:24:07.192Z,70.62
2023-01-13T06:26:34.851Z,70.80
2023-01-13T06:29:01.267Z,70.52
2023-01-13T06:31:28.707Z,70.59
2023-01-13T06:33:59.672Z,70.74
2023-01-13T06:36:27.424Z,70.97
2023-01-13T06:38:54.940Z,70.37
2023-01-13T06:41:43.507Z,71.18
2023-01-13T06:44:10.155Z,70.54
2023-01-13T06:46:36.710Z,70.16
2023-01-13T06:49:03.411Z,69.91
2023-01-13T06:51:29.856Z,69.89
2023-01-13T06:53:56.356Z,70.01
2023-01-13T06:56:22.795Z,70.50
2023-01-13T06:58:49.206Z,70.49
2023-01-13T07:01:15.786Z,70.20
2023-01-13T07:03:55.703Z,69.68
2023-01-13T07:06:22.134Z,69.83
2023-01-13T07:08:48.556Z,68.83
2023-01-13T07:11:15.074Z,69.19
2023-01-13T07:14:00.146Z,69.41
2023-01-13T07:16:28.228Z,69.67
2023-01-13T07:18:54.735Z,69.32
2023-01-13T07:21:21.225Z,68.92
2023-01-13T07:23:47.697Z,69.46
2023-01-13T07:26:14.296Z,68.17
2023-01-13T07:28:40.937Z,68.95
2023-01-13T07:31:13.073Z,68.48
2023-01-13T07:33:39.682Z,68.85
2023-01-13T07:36:06.248Z,68.27
2023-01-13T07:38:32.823Z,68.36
2023-01-13T07:41:19.399Z,67.83
2023-01-13T07:43:45.920Z,68.42
2023-01-13T07:46:12.478Z,67.87
2023-01-13T07:48:39.004Z,67.49
2023-01-13T07:51:06.285Z,67.61
2023-01-13T07:53:32.775Z,67.42
2023-01-13T07:59:27.325Z,67.06
2023-01-13T08:01:53.982Z,67.15
2023-01-13T08:04:20.600Z,67.55
2023-01-13T08:06:47.178Z,67.02
2023-01-13T08:09:13.738Z,67.07
2023-01-13T08:11:40.681Z,67.56
2023-01-13T08:14:07.211Z,66.52
2023-01-13T08:16:34.060Z,66.62
2023-01-13T08:19:00.552Z,67.31
2023-01-13T08:21:27.003Z,66.52
2023-01-13T08:23:53.495Z,66.52
2023-01-13T08:26:20.007Z,66.84
2023-01-13T08:28:46.452Z,66.85
2023-01-13T08:31:13.817Z,66.48
2023-01-13T08:33:40.416Z,66.12
2023-01-13T08:36:08.182Z,65.66
2023-01-13T08:38:34.805Z,66.46
2023-01-13T08:41:01.550Z,66.09
2023-01-13T08:43:28.131Z,66.47
2023-01-13T08:45:58.334Z,65.61
2023-01-13T08:48:25.017Z,66.50
2023-01-13T08:50:51.498Z,66.33
2023-01-13T08:53:18.044Z,66.86
2023-01-13T08:55:44.504Z,66.75
2023-01-13T08:58:15.907Z,66.91
2023-01-13T09:00:43.016Z,66.98
2023-01-13T09:03:09.490Z,66.29
2023-01-13T09:05:36.109Z,66.71
2023-01-13T09:08:02.579Z,67.13
2023-01-13T09:10:29.034Z,67.12
2023-01-13T09:13:13.947Z,66.60
2023-01-13T09:15:49.667Z,67.05
2023-01-13T09:18:16.174Z,66.20
2023-01-13T09:20:42.644Z,66.00
2023-01-13T09:23:11.024Z,66.12
2023-01-13T09:25:37.832Z,66.25
2023-01-13T09:28:08.733Z,64.97
2023-01-13T09:30:35.397Z,64.35
2023-01-13T09:33:20.543Z,65.52
2023-01-13T09:39:14.889Z,64.39
2023-01-13T09:42:02.532Z,64.77
2023-01-13T09:44:31.814Z,65.64
2023-01-13T09:46:59.955Z,65.06
2023-01-13T09:49:35.693Z,65.01
2023-01-13T09:52:03.411Z,65.17
2023-01-13T09:55:05.466Z,63.69
2023-01-13T09:57:36.805Z,64.00
2023-01-13T10:00:17.806Z,64.28
2023-01-13T10:03:04.672Z,64.48
2023-01-13T10:05:40.310Z,63.95
2023-01-13T10:08:13.784Z,64.41
2023-01-13T10:10:40.388Z,64.63
2023-01-13T10:13:20.139Z,63.30
2023-01-13T10:15:51.595Z,62.20
2023-01-13T10:18:38.330Z,63.82
2023-01-13T10:21:13.132Z,63.93
2023-01-13T10:23:42.649Z,61.99
2023-01-13T10:26:25.187Z,61.18
2023-01-13T10:28:52.931Z,61.13
2023-01-13T10:31:19.914Z,60.86
2023-01-13T10:33:46.462Z,60.91
2023-01-13T10:36:21.583Z,61.25
2023-01-13T10:38:48.778Z,60.83
2023-01-13T10:41:15.194Z,60.90
2023-01-13T10:44:01.373Z,60.86
2023-01-13T10:46:28.396Z,61.06
2023-01-13T10:48:58.648Z,60.68
2023-01-13T10:51:27.110Z,61.73
2023-01-13T10:53:55.066Z,61.33
2023-01-13T10:56:21.911Z,61.12
2023-01-13T10:58:48.392Z,61.71
2023-01-13T11:01:27.526Z,62.16
2023-01-13T11:03:54.335Z,62.23
2023-01-13T11:06:28.602Z,63.09
2023-01-13T11:08:55.629Z,63.78
2023-01-13T11:11:41.222Z,63.58
2023-01-13T11:14:27.925Z,63.28
2023-01-13T11:16:55.573Z,64.06
2023-01-13T11:19:22.691Z,63.45
2023-01-13T11:22:01.106Z,65.18
2023-01-13T11:24:27.531Z,65.66
2023-01-13T11:26:56.720Z,65.79
2023-01-13T11:29:37.700Z,65.58
2023-01-13T11:32:22.726Z,64.75
2023-01-13T11:34:52.581Z,63.55
2023-01-13T11:37:28.829Z,63.38
2023-01-13T11:39:56.326Z,64.20
2023-01-13T11:42:26.732Z,63.22
2023-01-13T11:44:56.349Z,62.82
2023-01-13T11:47:23.576Z,62.30
2023-01-13T11:49:50.030Z,63.25
2023-01-13T11:52:19.021Z,63.06
2023-01-13T11:55:04.374Z,62.57
2023-01-13T11:57:50.377Z,61.90
2023-01-13T12:00:36.888Z,60.82
2023-01-13T12:06:34.063Z,61.70
2023-01-13T12:09:00.538Z,62.10
2023-01-13T12:11:29.971Z,61.40
2023-01-13T12:14:02.774Z,62.48
2023-01-13T12:16:30.690Z,62.38
2023-01-13T12:19:18.714Z,61.91
2023-01-13T12:21:57.227Z,61.39
2023-01-13T12:24:53.240Z,62.62
2023-01-13T12:27:38.419Z,61.48
2023-01-13T12:30:13.046Z,61.38
2023-01-13T12:32:39.642Z,61.79
2023-01-13T12:35:06.049Z,62.51
2023-01-13T12:37:37.870Z,61.57
2023-01-13T12:40:11.618Z,61.84
2023-01-13T12:43:00.123Z,61.99
2023-01-13T12:45:28.488Z,63.33
2023-01-13T12:47:55.090Z,62.97
2023-01-13T12:50:24.893Z,62.55
2023-01-13T12:53:01.000Z,61.42
2023-01-13T12:55:28.251Z,61.44
2023-01-13T12:58:06.928Z,61.82
2023-01-13T13:00:39.586Z,62.35
2023-01-13T13:03:16.711Z,61.34
2023-01-13T13:05:47.976Z,61.31
2023-01-13T13:08:16.104Z,62.69
2023-01-13T13:10:44.770Z,63.24
2023-01-13T13:13:21.909Z,61.91
2023-01-13T13:15:51.548Z,61.92
2023-01-13T13:18:18.090Z,61.64
2023-01-13T13:20:55.011Z,62.14
2023-01-13T13:23:30.639Z,61.59
2023-01-13T13:26:15.554Z,61.63
2023-01-13T13:28:44.357Z,62.48
2023-01-13T13:31:17.477Z,62.32
2023-01-13T13:33:53.105Z,63.04
2023-01-13T13:36:38.357Z,61.78
2023-01-13T13:39:30.162Z,62.36
2023-01-13T13:42:17.303Z,61.55
2023-01-13T13:45:04.396Z,62.36
2023-01-13T13:47:39.888Z,62.05
2023-01-13T13:50:13.608Z,62.27
2023-01-13T13:52:41.275Z,62.63
2023-01-13T13:55:08.795Z,63.64
2023-01-13T13:57:39.456Z,63.23
2023-01-13T14:00:15.480Z,62.77
2023-01-13T14:02:46.728Z,63.62
2023-01-13T14:05:28.638Z,63.48
2023-01-13T14:08:14.608Z,63.83
2023-01-13T14:10:41.563Z,63.69
2023-01-13T14:13:14.051Z,64.45
2023-01-13T14:15:41.225Z,64.91
2023-01-13T14:18:34.347Z,65.52
2023-01-13T14:21:05.464Z,65.83
2023-01-13T14:23:32.625Z,66.59
2023-01-13T14:26:09.361Z,67.30
2023-01-13T14:28:36.707Z,68.40
2023-01-13T14:31:03.198Z,68.42
2023-01-13T14:33:34.179Z,69.12
2023-01-13T14:39:39.774Z,69.83
2023-01-13T14:42:11.350Z,70.21
2023-01-13T14:44:37.817Z,70.00
2023-01-13T14:50:33.919Z,69.92
2023-01-13T14:53:00.822Z,70.33
2023-01-13T14:55:27.278Z,70.39
2023-01-13T14:57:53.856Z,70.64
2023-01-13T15:00:21.785Z,71.07
2023-01-13T15:02:48.299Z,71.34
2023-01-13T15:05:18.830Z,71.58
2023-01-13T15:07:52.029Z,71.54
2023-01-13T15:10:19.028Z,71.64
2023-01-13T15:12:45.459Z,72.10
2023-01-13T15:15:30.390Z,72.13
2023-01-13T15:17:56.844Z,71.80
2023-01-13T15:20:23.707Z,72.24
2023-01-13T15:22:50.351Z,71.77
2023-01-13T15:25:16.804Z,71.74
2023-01-13T15:27:43.521Z,72.52
2023-01-13T15:30:28.178Z,72.62
2023-01-13T15:32:58.181Z,72.16
2023-01-13T15:35:25.610Z,72.68
2023-01-13T15:37:52.257Z,72.28
2023-01-13T15:40:20.033Z,72.93
2023-01-13T15:43:05.002Z,72.70
2023-01-13T15:45:50.087Z,72.24
2023-01-13T15:48:16.621Z,73.07
2023-01-13T15:50:43.048Z,73.42
2023-01-13T15:53:10.963Z,73.39
2023-01-13T15:55:37.433Z,73.44
2023-01-13T15:58:03.875Z,72.94
2023-01-13T16:00:30.370Z,73.03
2023-01-13T16:02:56.883Z,73.01
2023-01-13T16:05:23.366Z,72.47
2023-01-13T16:07:49.845Z,72.81
2023-01-13T16:10:17.319Z,72.55
2023-01-13T16:12:43.767Z,73.17
2023-01-13T16:15:12.334Z,72.96
2023-01-13T16:17:38.776Z,72.82
2023-01-13T16:20:05.432Z,72.95
2023-01-13T16:22:31.892Z,72.90
2023-01-13T16:24:58.369Z,72.63
2023-01-13T16:27:25.255Z,72.97
2023-01-13T16:29:51.979Z,72.32
2023-01-13T16:32:19.751Z,72.49
2023-01-13T16:34:46.888Z,72.40
2023-01-13T16:40:41.622Z,72.40
2023-01-13T16:43:08.960Z,72.12
2023-01-13T16:45:35.410Z,72.64
2023-01-13T16:48:01.921Z,72.42
2023-01-13T16:50:34.641Z,72.25
2023-01-13T16:53:01.210Z,72.19
2023-01-13T16:55:27.826Z,72.43
2023-01-13T16:57:54.585Z,72.56
2023-01-13T17:00:21.219Z,72.06
2023-01-13T17:02:47.813Z,72.36
2023-01-13T17:05:14.375Z,72.30
2023-01-13T17:07:44.294Z,72.19
2023-01-13T17:10:14.459Z,72.47
2023-01-13T17:12:40.911Z,71.85
2023-01-13T17:15:07.672Z,72.44
2023-01-13T17:17:34.146Z,72.39
2023-01-13T17:20:00.826Z,72.62
2023-01-13T17:22:27.338Z,72.21
2023-01-13T17:24:53.825Z,72.20
2023-01-13T17:27:21.471Z,72.44
2023-01-13T17:29:47.964Z,72.19
2023-01-13T17:32:15.184Z,72.75
2023-01-13T17:34:41.643Z,72.56
2023-01-13T17:37:08.357Z,72.52
2023-01-13T17:39:34.800Z,72.84
2023-01-13T17:42:01.256Z,72.31
2023-01-13T17:44:27.725Z,72.64
2023-01-13T17:46:54.230Z,72.41
2023-01-13T17:49:21.870Z,73.20
2023-01-13T17:51:48.479Z,73.59
2023-01-13T17:54:15.145Z,74.07
2023-01-13T17:56:41.727Z,73.94
2023-01-13T17:59:10.346Z,74.35
2023-01-13T18:01:37.235Z,74.02
2023-01-13T18:04:03.889Z,75.01
2023-01-13T18:06:30.337Z,75.63
2023-01-13T18:08:58.060Z,75.85
2023-01-13T18:11:24.505Z,75.85
2023-01-13T18:13:52.031Z,75.59
2023-01-13T18:16:19.010Z,75.73
2023-01-13T18:18:46.715Z,76.06
2023-01-13T18:21:35.219Z,77.22
2023-01-13T18:24:20.385Z,76.84
2023-01-13T18:27:05.463Z,77.81
2023-01-13T18:29:31.906Z,77.90
2023-01-13T18:31:58.396Z,78.27
2023-01-13T18:34:25.059Z,78.49
2023-01-13T18:36:51.555Z,78.70
2023-01-13T18:39:18.148Z,79.19
2023-01-13T18:42:03.266Z,79.25
2023-01-13T18:44:29.743Z,79.93
2023-01-13T18:46:56.197Z,79.75
2023-01-13T18:49:22.883Z,79.81
2023-01-13T18:51:49.403Z,80.02
2023-01-13T18:54:15.865Z,80.39
2023-01-13T18:56:42.329Z,80.48
2023-01-13T18:59:08.796Z,80.62
2023-01-13T19:01:37.172Z,80.12
2023-01-13T19:04:04.384Z,80.31
2023-01-13T19:06:33.884Z,80.67
2023-01-13T19:09:01.672Z,80.64
2023-01-13T19:11:30.569Z,81.12
2023-01-13T19:13:57.034Z,80.58
2023-01-13T19:16:23.484Z,80.72
2023-01-13T19:22:19.828Z,81.78
2023-01-13T19:24:46.426Z,81.42
2023-01-13T19:27:14.533Z,81.41
2023-01-13T19:29:45.715Z,81.69
2023-01-13T19:32:18.079Z,81.15
2023-01-13T19:34:44.738Z,81.69
2023-01-13T19:37:11.277Z,81.10
2023-01-13T19:39:37.816Z,81.47
2023-01-13T19:42:22.843Z,81.19
2023-01-13T19:48:17.604Z,81.89
2023-01-13T19:50:44.157Z,82.06
2023-01-13T19:53:14.649Z,81.92
2023-01-13T19:59:10.569Z,82.04
2023-01-13T20:01:40.650Z,82.58
2023-01-13T20:04:14.028Z,83.02
2023-01-13T20:06:40.892Z,82.60
2023-01-13T20:09:07.373Z,82.75
2023-01-13T20:11:34.103Z,83.24
2023-01-13T20:14:00.989Z,83.53
2023-01-13T20:16:27.823Z,83.25
2023-01-13T20:18:54.401Z,82.87
2023-01-13T20:21:20.906Z,83.11
2023-01-13T20:23:51.000Z,82.55
2023-01-13T20:26:17.761Z,82.72
2023-01-13T20:32:12.343Z,82.09
2023-01-13T20:34:38.835Z,82.17
2023-01-13T20:37:05.336Z,82.03
2023-01-13T20:39:31.910Z,82.20
2023-01-13T20:42:16.918Z,81.83
2023-01-13T20:44:45.012Z,81.78
2023-01-13T20:47:11.511Z,81.88
2023-01-13T20:49:41.225Z,81.98
2023-01-13T20:52:10.785Z,82.04
2023-01-13T20:54:37.429Z,82.57
2023-01-13T20:57:05.251Z,82.68
2023-01-13T20:59:31.772Z,82.85
2023-01-13T21:01:58.234Z,83.28
2023-01-13T21:04:24.762Z,82.71
2023-01-13T21:06:51.295Z,82.69
2023-01-13T21:09:17.776Z,83.02
2023-01-13T21:12:05.331Z,82.75
2023-01-13T21:14:50.476Z,83.43
2023-01-13T21:17:35.741Z,83.34
2023-01-13T21:20:04.330Z,83.52
2023-01-13T21:22:31.202Z,83.27
2023-01-13T21:24:58.566Z,83.20
2023-01-13T21:27:25.435Z,83.50
2023-01-13T21:29:52.075Z,82.98
2023-01-13T21:32:18.551Z,83.12
2023-01-13T21:34:45.037Z,83.12
2023-01-13T21:37:11.519Z,83.12
2023-01-13T21:39:37.995Z,83.30
2023-01-13T21:42:23.188Z,83.69
2023-01-13T21:45:08.394Z,83.13
2023-01-13T21:47:50.269Z,83.55
2023-01-13T21:50:18.034Z,82.81
2023-01-13T21:52:44.856Z,82.68
2023-01-13T21:55:17.442Z,82.44
2023-01-13T21:57:47.316Z,82.50
2023-01-13T22:00:14.134Z,82.16
2023-01-13T22:02:40.732Z,82.38
2023-01-13T22:05:07.658Z,82.00
2023-01-13T22:07:34.542Z,82.04
2023-01-13T22:10:01.071Z,81.98
2023-01-13T22:12:27.876Z,82.74
2023-01-13T22:14:54.461Z,82.23
2023-01-13T22:17:21.151Z,82.80
2023-01-13T22:19:48.057Z,82.31
2023-01-13T22:22:16.031Z,82.49
2023-01-13T22:24:43.599Z,82.20
2023-01-13T22:27:10.709Z,82.31
2023-01-13T22:29:37.828Z,82.71
2023-01-13T22:32:04.792Z,82.50
2023-01-13T22:34:31.284Z,82.51
2023-01-13T22:36:58.024Z,82.31
2023-01-13T22:39:24.489Z,82.73
2023-01-13T22:41:50.955Z,82.95
2023-01-13T22:44:17.447Z,82.36
2023-01-13T22:46:43.929Z,82.27
2023-01-13T22:49:11.383Z,82.06
2023-01-13T22:51:37.834Z,82.63
2023-01-13T22:54:04.390Z,82.33
2023-01-13T22:56:30.815Z,82.53
2023-01-13T22:58:57.835Z,82.82
2023-01-13T23:01:24.618Z,82.70
2023-01-13T23:03:51.144Z,83.20
2023-01-13T23:06:18.289Z,82.54
2023-01-13T23:08:44.947Z,82.67
2023-01-13T23:11:12.042Z,82.62
2023-01-13T23:13:39.366Z,82.48
2023-01-13T23:16:06.762Z,82.41
2023-01-13T23:18:33.246Z,82.21
2023-01-13T23:21:03.735Z,82.24
2023-01-13T23:23:30.496Z,82.05
2023-01-13T23:25:56.972Z,82.44
2023-01-13T23:28:23.411Z,82.11
2023-01-13T23:30:50.338Z,82.06
2023-01-13T23:33:16.838Z,82.63
2023-01-13T23:35:43.368Z,82.24
2023-01-13T23:38:09.824Z,82.36
2023-01-13T23:40:36.278Z,82.19
2023-01-13T23:43:02.722Z,82.22
2023-01-13T23:45:29.198Z,82.44
2023-01-13T23:47:55.894Z,82.03
2023-01-13T23:50:22.336Z,82.05
2023-01-13T23:52:48.826Z,81.88
2023-01-13T23:55:15.336Z,82.08
2023-01-13T23:57:42.776Z,82.15
